Astoria Regional Airport
KAST : now visible

Airfield :











YOU CAN JOIN US ON...

 
LOGIN :

Register | Disclaimer

   EN    FR    IT 

 









Legend :    VFR   Marginal VFR   IFR   Intensive IFR   Very Intensive IFR
Visi :
Ceiling :
>= 8 km
>= 3000ft
5 to 8 km
1000 to 3000 ft
1500m to 5 km
500 to 1000 ft
800 to 1500m
200 to 500 ft
< 800m
< 200 ft
Symbols :   Thunderstorms  Fog  Heavy snow  Heavy precipitations  Wind > 20 kt






- Airport Elevation : 15 ft


KAST - Astoria Regional

CURRENT METAR :
  • 250255Z AUTO 27006KT 10SM BKN008 16/13 A3004 RMK AO2 SLP172 T01560128 56009

EXPIRED METARs :
  • 250247Z AUTO 26006KT 10SM BKN009 16/13 A3004 RMK AO2 T01560128
  • 250230Z AUTO 26006KT 10SM FEW009 16/13 A3004 RMK AO2 T01560128
  • 250155Z AUTO 27007KT 10SM CLR 18/13 A3004 RMK AO2 SLP172 T01780133
  • 250055Z AUTO 29006KT 10SM CLR 19/13 A3005 RMK AO2 SLP176 T01890128

TAF KAST
Valid from the 25 at 03:00 until the 26 at 00:00 UTC


250259Z 2503/2524 27005KT P6SM OVC008
FM251800 25007KT P6SM SKC
KZSE FIR / North America



MET'MAP, your aeronautical weather chart ! - Copyright ORBIFLY December 2007 - Disclaimer

ORBIFLY MET'MAP TEAM :

Programming & Development : Alexandra Zaïnal
Concept & original design : Baudouin d'Aumeries
Assistance for programming : Marc-Olivier Méhu
Technical & hardware support : Manuel Goepfert

Contact : metmap@orbifly.com




SOURCES & CREDITS :

   NOAA       Earth
Advisory